Terminal Aerodrome Forecast
Issued by NWS

Home | Current Version | Previous Version | Text Only | Print | Product List | Glossary On
Versions: 1 2 3 4 5 6 7 8 9 10 11 12 13 14 15 16 17 18
000
FTUS43 KDVN 311100
TAFBRL
TAF
KBRL 311134Z 3112/0112 VRB03KT P6SM SKC
      TEMPO 3112/3113 4SM BR
     FM311700 27007KT P6SM SCT050
     FM010300 24004KT P6SM SCT100 SCT250
     FM011000 VRB03KT 5SM BR SKC
      TEMPO 0110/0112 1SM BR=

USA.gov is the U.S. government's official web portal to all federal, state and local government web resources and services.